createdAt,value
2018-02-14T00:01:52.931Z,98916.03
2018-02-14T00:04:19.287Z,98914.06
2018-02-14T00:06:45.739Z,98914.11
2018-02-14T00:09:12.140Z,98904.47
2018-02-14T00:11:38.492Z,98902.77
2018-02-14T00:14:04.889Z,98900.06
2018-02-14T00:16:31.269Z,98882.47
2018-02-14T00:18:57.622Z,98873.02
2018-02-14T00:21:24.022Z,98869.69
2018-02-14T00:23:50.373Z,98864.61
2018-02-14T00:26:16.809Z,98866.20
2018-02-14T00:28:43.225Z,98847.63
2018-02-14T00:31:09.577Z,98835.87
2018-02-14T00:33:35.954Z,98837.98
2018-02-14T00:36:02.369Z,98831.64
2018-02-14T00:38:28.721Z,98822.55
2018-02-14T00:40:55.076Z,98815.81
2018-02-14T00:43:21.497Z,98815.91
2018-02-14T00:45:47.873Z,98812.41
2018-02-14T00:48:14.229Z,98803.80
2018-02-14T00:50:40.609Z,98803.45
2018-02-14T00:53:06.961Z,98799.41
2018-02-14T00:55:33.324Z,98797.31
2018-02-14T00:57:59.725Z,98798.41
2018-02-14T01:00:26.081Z,98789.02
2018-02-14T01:02:52.489Z,98791.14
2018-02-14T01:05:19.152Z,98797.23
2018-02-14T01:07:45.583Z,98794.27
2018-02-14T01:10:11.981Z,98782.01
2018-02-14T01:12:38.429Z,98773.98
2018-02-14T01:15:04.896Z,98770.45
2018-02-14T01:17:31.297Z,98768.02
2018-02-14T01:20:03.769Z,98757.70
2018-02-14T01:22:30.224Z,98752.25
2018-02-14T01:24:56.557Z,98760.19
2018-02-14T01:27:22.966Z,98754.53
2018-02-14T01:29:49.308Z,98767.38
2018-02-14T01:32:15.732Z,98762.97
2018-02-14T01:34:42.126Z,98757.42
2018-02-14T01:37:08.517Z,98751.58
2018-02-14T01:39:34.972Z,98745.25
2018-02-14T01:42:01.364Z,98741.97
2018-02-14T01:44:27.749Z,98728.58
2018-02-14T01:46:54.186Z,98724.07
2018-02-14T01:49:20.582Z,98712.17
2018-02-14T01:51:46.989Z,98706.18
2018-02-14T01:54:13.385Z,98701.28
2018-02-14T01:56:39.792Z,98701.34
2018-02-14T01:59:06.336Z,98704.72
2018-02-14T02:01:32.826Z,98703.41
2018-02-14T02:03:59.429Z,98684.22
2018-02-14T02:06:25.920Z,98676.24
2018-02-14T02:08:52.312Z,98677.94
2018-02-14T02:11:18.704Z,98675.02
2018-02-14T02:13:45.076Z,98672.68
2018-02-14T02:16:11.512Z,98668.33
2018-02-14T02:18:37.961Z,98663.67
2018-02-14T02:21:04.396Z,98652.41
2018-02-14T02:23:30.840Z,98646.42
2018-02-14T02:25:57.260Z,98656.61
2018-02-14T02:28:23.728Z,98653.41
2018-02-14T02:30:50.129Z,98642.31
2018-02-14T02:33:18.256Z,98641.80
2018-02-14T02:35:44.608Z,98628.13
2018-02-14T02:38:11.004Z,98628.59
2018-02-14T02:40:41.349Z,98629.56
2018-02-14T02:43:07.800Z,98636.00
2018-02-14T02:45:34.216Z,98631.27
2018-02-14T02:48:00.625Z,98615.98
2018-02-14T02:50:27.226Z,98612.23
2018-02-14T02:52:53.588Z,98610.91
2018-02-14T02:55:20.001Z,98614.79
2018-02-14T02:57:46.345Z,98616.72
2018-02-14T03:00:12.812Z,98607.55
2018-02-14T03:02:39.273Z,98601.33
2018-02-14T03:05:05.720Z,98599.05
2018-02-14T03:07:32.161Z,98602.19
2018-02-14T03:09:58.554Z,98595.61
2018-02-14T03:12:24.974Z,98602.90
2018-02-14T03:14:51.409Z,98600.42
2018-02-14T03:17:17.902Z,98594.20
2018-02-14T03:19:44.321Z,98597.52
2018-02-14T03:22:10.689Z,98583.50
2018-02-14T03:24:37.169Z,98585.00
2018-02-14T03:27:03.605Z,98578.14
2018-02-14T03:29:30.061Z,98588.34
2018-02-14T03:31:56.510Z,98578.20
2018-02-14T03:34:22.912Z,98571.89
2018-02-14T03:36:49.454Z,98580.13
2018-02-14T03:39:15.839Z,98572.98
2018-02-14T03:41:42.281Z,98576.34
2018-02-14T03:44:08.737Z,98579.97
2018-02-14T03:46:35.203Z,98596.69
2018-02-14T03:49:01.738Z,98618.17
2018-02-14T03:51:28.337Z,98634.70
2018-02-14T03:53:54.802Z,98632.30
2018-02-14T03:56:21.224Z,98631.86
2018-02-14T03:58:47.695Z,98629.48
2018-02-14T04:01:14.200Z,98629.52
2018-02-14T04:03:40.618Z,98608.86
2018-02-14T04:06:07.148Z,98609.05
2018-02-14T04:08:33.629Z,98595.33
2018-02-14T04:11:00.046Z,98591.16
2018-02-14T04:13:26.473Z,98588.74
2018-02-14T04:15:52.907Z,98589.77
2018-02-14T04:18:19.284Z,98580.06
2018-02-14T04:20:45.768Z,98577.16
2018-02-14T04:23:12.226Z,98572.77
2018-02-14T04:25:38.614Z,98578.67
2018-02-14T04:28:07.181Z,98572.88
2018-02-14T04:30:33.743Z,98573.89
2018-02-14T04:33:00.226Z,98565.98
2018-02-14T04:35:26.904Z,98571.11
2018-02-14T04:37:53.266Z,98571.87
2018-02-14T04:40:19.736Z,98562.64
2018-02-14T04:42:46.145Z,98566.80
2018-02-14T04:45:12.641Z,98566.60
2018-02-14T04:47:40.892Z,98563.00
2018-02-14T04:50:07.472Z,98564.64
2018-02-14T04:52:33.887Z,98565.72
2018-02-14T04:55:00.364Z,98566.87
2018-02-14T04:57:26.815Z,98563.40
2018-02-14T04:59:53.183Z,98560.33
2018-02-14T05:02:19.601Z,98562.52
2018-02-14T05:04:46.076Z,98565.13
2018-02-14T05:07:12.740Z,98569.36
2018-02-14T05:09:39.202Z,98565.86
2018-02-14T05:12:05.585Z,98572.56
2018-02-14T05:14:31.982Z,98556.43
2018-02-14T05:16:58.568Z,98553.66
2018-02-14T05:19:24.960Z,98569.22
2018-02-14T05:21:51.493Z,98571.73
2018-02-14T05:24:18.005Z,98577.36
2018-02-14T05:26:44.416Z,98579.03
2018-02-14T05:29:10.817Z,98584.17
2018-02-14T05:31:37.248Z,98586.23
2018-02-14T05:34:03.729Z,98581.56
2018-02-14T05:36:30.173Z,98584.44
2018-02-14T05:38:56.666Z,98595.89
2018-02-14T05:41:23.046Z,98597.16
2018-02-14T05:43:49.528Z,98598.34
2018-02-14T05:46:16.008Z,98600.93
2018-02-14T05:48:42.423Z,98594.32
2018-02-14T05:51:08.881Z,98581.23
2018-02-14T05:53:35.463Z,98591.47
2018-02-14T05:56:01.947Z,98606.16
2018-02-14T05:58:28.368Z,98604.36
2018-02-14T06:00:54.839Z,98608.36
2018-02-14T06:03:21.325Z,98610.55
2018-02-14T06:05:47.693Z,98609.11
2018-02-14T06:08:14.153Z,98607.99
2018-02-14T06:10:40.552Z,98602.85
2018-02-14T06:13:07.098Z,98602.66
2018-02-14T06:15:33.673Z,98605.91
2018-02-14T06:18:00.059Z,98610.72
2018-02-14T06:20:26.460Z,98616.73
2018-02-14T06:22:52.940Z,98616.14
2018-02-14T06:25:19.530Z,98605.35
2018-02-14T06:27:45.989Z,98609.95
2018-02-14T06:30:12.433Z,98620.62
2018-02-14T06:32:39.213Z,98618.90
2018-02-14T06:35:06.308Z,98616.91
2018-02-14T06:37:33.482Z,98613.67
2018-02-14T06:39:59.939Z,98623.52
2018-02-14T06:42:26.829Z,98639.25
2018-02-14T06:44:54.542Z,98639.00
2018-02-14T06:47:21.500Z,98630.72
2018-02-14T06:49:48.162Z,98615.92
2018-02-14T06:52:14.881Z,98610.12
2018-02-14T06:54:41.389Z,98619.39
2018-02-14T06:57:07.855Z,98618.31
2018-02-14T06:59:35.038Z,98623.94
2018-02-14T07:02:01.802Z,98626.43
2018-02-14T07:04:28.358Z,98641.42
2018-02-14T07:06:54.776Z,98650.95
2018-02-14T07:09:21.249Z,98652.13
2018-02-14T07:11:47.689Z,98649.80
2018-02-14T07:14:14.238Z,98634.98
2018-02-14T07:16:40.710Z,98633.44
2018-02-14T07:19:07.279Z,98638.14
2018-02-14T07:21:33.747Z,98652.12
2018-02-14T07:24:00.194Z,98662.12
2018-02-14T07:26:26.676Z,98660.81
2018-02-14T07:28:53.093Z,98666.61
2018-02-14T07:31:19.517Z,98659.58
2018-02-14T07:33:46.027Z,98650.95
2018-02-14T07:36:12.521Z,98647.31
2018-02-14T07:38:39.025Z,98655.47
2018-02-14T07:41:05.620Z,98658.52
2018-02-14T07:43:32.073Z,98653.22
2018-02-14T07:45:58.548Z,98659.80
2018-02-14T07:48:25.024Z,98658.75
2018-02-14T07:50:51.446Z,98674.16
2018-02-14T07:53:17.966Z,98668.59
2018-02-14T07:55:44.392Z,98673.25
2018-02-14T07:58:10.801Z,98678.30
2018-02-14T08:00:37.260Z,98673.02
2018-02-14T08:03:03.748Z,98685.52
2018-02-14T08:05:30.125Z,98697.74
2018-02-14T08:07:56.635Z,98697.87
2018-02-14T08:10:23.060Z,98693.13
2018-02-14T08:12:49.457Z,98689.87
2018-02-14T08:15:15.934Z,98688.58
2018-02-14T08:17:42.396Z,98700.39
2018-02-14T08:20:08.874Z,98696.17
2018-02-14T08:22:35.387Z,98691.67
2018-02-14T08:25:01.951Z,98673.64
2018-02-14T08:27:28.537Z,98661.95
2018-02-14T08:29:55.103Z,98654.59
2018-02-14T08:32:21.588Z,98652.98
2018-02-14T08:34:48.047Z,98650.50
2018-02-14T08:37:14.637Z,98652.08
2018-02-14T08:39:41.081Z,98651.94
2018-02-14T08:42:07.565Z,98639.70
2018-02-14T08:44:34.128Z,98652.70
2018-02-14T08:47:00.574Z,98653.41
2018-02-14T08:49:27.175Z,98651.91
2018-02-14T08:51:53.660Z,98644.58
2018-02-14T08:54:20.090Z,98645.98
2018-02-14T08:56:46.485Z,98662.75
2018-02-14T08:59:12.909Z,98658.36
2018-02-14T09:01:39.447Z,98664.94
2018-02-14T09:04:05.853Z,98675.28
2018-02-14T09:06:32.245Z,98664.16
2018-02-14T09:08:58.794Z,98664.58
2018-02-14T09:11:25.156Z,98638.71
2018-02-14T09:13:51.625Z,98609.71
2018-02-14T09:16:18.054Z,98588.01
2018-02-14T09:18:44.509Z,98545.53
2018-02-14T09:21:10.935Z,98574.25
2018-02-14T09:23:37.503Z,98630.33
2018-02-14T09:26:03.940Z,98660.94
2018-02-14T09:28:30.416Z,98674.92
2018-02-14T09:30:56.869Z,98675.77
2018-02-14T09:33:23.295Z,98694.03
2018-02-14T09:35:49.684Z,98698.16
2018-02-14T09:38:16.124Z,98708.70
2018-02-14T09:40:42.479Z,98709.99
2018-02-14T09:43:08.848Z,98717.43
2018-02-14T09:45:35.332Z,98724.59
2018-02-14T09:48:01.705Z,98720.02
2018-02-14T09:50:28.143Z,98728.24
2018-02-14T09:52:54.573Z,98732.07
2018-02-14T09:55:21.080Z,98736.55
2018-02-14T09:57:47.596Z,98731.83
2018-02-14T10:00:13.999Z,98725.80
2018-02-14T10:02:40.430Z,98723.73
2018-02-14T10:05:06.954Z,98726.23
2018-02-14T10:07:33.395Z,98722.48
2018-02-14T10:09:59.868Z,98724.78
2018-02-14T10:12:26.524Z,98724.53
2018-02-14T10:14:52.955Z,98728.22
2018-02-14T10:17:19.326Z,98722.94
2018-02-14T10:19:45.876Z,98725.58
2018-02-14T10:22:12.606Z,98730.30
2018-02-14T10:24:39.044Z,98740.48
2018-02-14T10:27:05.453Z,98736.84
2018-02-14T10:29:32.145Z,98739.66
2018-02-14T10:31:59.999Z,98741.20
2018-02-14T10:34:27.402Z,98734.95
2018-02-14T10:36:54.756Z,98724.94
2018-02-14T10:39:21.305Z,98730.38
2018-02-14T10:41:47.774Z,98728.49
2018-02-14T10:44:14.183Z,98728.58
2018-02-14T10:46:40.683Z,98726.64
2018-02-14T10:49:07.101Z,98726.72
2018-02-14T10:51:33.570Z,98724.84
2018-02-14T10:53:59.981Z,98735.08
2018-02-14T10:56:26.472Z,98733.61
2018-02-14T10:58:53.044Z,98735.02
2018-02-14T11:01:25.325Z,98731.37
2018-02-14T11:03:51.714Z,98740.26
2018-02-14T11:06:18.193Z,98745.21
2018-02-14T11:08:44.707Z,98747.86
2018-02-14T11:11:11.161Z,98749.32
2018-02-14T11:13:37.568Z,98743.11
2018-02-14T11:16:04.005Z,98743.56
2018-02-14T11:18:30.544Z,98745.89
2018-02-14T11:20:56.964Z,98748.73
2018-02-14T11:23:23.345Z,98753.31
2018-02-14T11:25:49.740Z,98754.03
2018-02-14T11:28:16.171Z,98755.89
2018-02-14T11:30:42.580Z,98757.23
2018-02-14T11:33:09.040Z,98769.97
2018-02-14T11:35:35.531Z,98769.20
2018-02-14T11:38:01.908Z,98779.08
2018-02-14T11:40:28.481Z,98784.50
2018-02-14T11:42:54.977Z,98786.06
2018-02-14T11:45:21.434Z,98794.85
2018-02-14T11:47:47.885Z,98794.34
2018-02-14T11:50:14.320Z,98800.42
2018-02-14T11:52:40.716Z,98793.78
2018-02-14T11:55:07.117Z,98801.03
2018-02-14T11:57:33.517Z,98806.73
2018-02-14T11:59:59.949Z,98807.48
2018-02-14T12:02:26.362Z,98809.80
2018-02-14T12:04:52.837Z,98808.06
2018-02-14T12:07:19.258Z,98804.16
2018-02-14T12:09:45.683Z,98809.92
2018-02-14T12:12:19.369Z,98806.64
2018-02-14T12:14:45.749Z,98818.11
2018-02-14T12:17:12.262Z,98820.05
2018-02-14T12:19:38.654Z,98825.45
2018-02-14T12:22:05.139Z,98825.48
2018-02-14T12:24:31.485Z,98827.97
2018-02-14T12:26:57.925Z,98835.58
2018-02-14T12:29:24.348Z,98831.44
2018-02-14T12:31:50.892Z,98837.05
2018-02-14T12:34:17.409Z,98841.16
2018-02-14T12:36:43.853Z,98849.48
2018-02-14T12:39:10.409Z,98846.72
2018-02-14T12:41:36.793Z,98850.31
2018-02-14T12:44:03.305Z,98848.21
2018-02-14T12:46:29.777Z,98860.31
2018-02-14T12:48:56.185Z,98845.83
2018-02-14T12:51:22.649Z,98854.70
2018-02-14T12:53:49.055Z,98857.36
2018-02-14T12:56:15.451Z,98863.34
2018-02-14T12:58:41.843Z,98863.43
2018-02-14T13:01:08.192Z,98863.71
2018-02-14T13:03:34.704Z,98868.59
2018-02-14T13:06:01.052Z,98876.27
2018-02-14T13:08:27.688Z,98884.72
2018-02-14T13:10:54.113Z,98884.75
2018-02-14T13:13:20.528Z,98880.08
2018-02-14T13:15:46.984Z,98882.34
2018-02-14T13:18:14.317Z,98882.17
2018-02-14T13:20:40.685Z,98884.72
2018-02-14T13:23:07.099Z,98883.91
2018-02-14T13:25:33.561Z,98890.57
2018-02-14T13:27:59.949Z,98884.45
2018-02-14T13:30:26.393Z,98896.02
2018-02-14T13:32:52.848Z,98883.76
2018-02-14T13:35:19.223Z,98892.40
2018-02-14T13:37:45.698Z,98894.88
2018-02-14T13:40:12.294Z,98908.19
2018-02-14T13:42:38.641Z,98907.97
2018-02-14T13:45:05.006Z,98903.69
2018-02-14T13:47:31.462Z,98918.87
2018-02-14T13:49:57.827Z,98917.65
2018-02-14T13:52:24.423Z,98925.16
2018-02-14T13:54:50.896Z,98917.14
2018-02-14T13:57:17.254Z,98919.64
2018-02-14T13:59:43.719Z,98934.47
2018-02-14T14:02:10.125Z,98936.00
2018-02-14T14:04:36.591Z,98931.61
2018-02-14T14:07:03.005Z,98941.57
2018-02-14T14:09:29.443Z,98945.27
2018-02-14T14:11:55.928Z,98952.13
2018-02-14T14:14:22.386Z,98954.05
2018-02-14T14:16:48.794Z,98952.74
2018-02-14T14:19:15.234Z,98962.41
2018-02-14T14:21:41.612Z,98966.28
2018-02-14T14:24:08.028Z,98960.77
2018-02-14T14:26:34.508Z,98966.23
2018-02-14T14:29:00.893Z,98968.16
2018-02-14T14:31:27.398Z,98973.75
2018-02-14T14:33:53.932Z,98973.52
2018-02-14T14:36:20.424Z,98973.97
2018-02-14T14:38:46.853Z,98985.94
2018-02-14T14:41:13.257Z,98991.81
2018-02-14T14:43:39.809Z,98994.00
2018-02-14T14:46:06.224Z,98999.23
2018-02-14T14:48:32.613Z,99007.20
2018-02-14T14:50:59.053Z,99007.25
2018-02-14T14:53:25.504Z,99011.06
2018-02-14T14:55:51.912Z,99014.75
2018-02-14T14:58:18.428Z,99019.75
2018-02-14T15:00:44.837Z,99024.58
2018-02-14T15:03:11.406Z,99024.89
2018-02-14T15:05:37.854Z,99026.37
2018-02-14T15:08:04.281Z,99025.70
2018-02-14T15:10:30.713Z,99038.82
2018-02-14T15:12:57.152Z,99034.86
2018-02-14T15:15:23.533Z,99040.41
2018-02-14T15:17:49.908Z,99045.03
2018-02-14T15:20:16.301Z,99054.02
2018-02-14T15:22:42.736Z,99059.14
2018-02-14T15:25:09.253Z,99070.09
2018-02-14T15:27:35.637Z,99072.52
2018-02-14T15:30:02.128Z,99074.14
2018-02-14T15:32:28.559Z,99084.27
2018-02-14T15:34:54.955Z,99089.20
2018-02-14T15:37:21.388Z,99097.07
2018-02-14T15:39:47.797Z,99095.50
2018-02-14T15:42:14.269Z,99098.11
2018-02-14T15:44:40.702Z,99107.16
2018-02-14T15:47:07.226Z,99114.08
2018-02-14T15:49:33.676Z,99121.36
2018-02-14T15:52:00.084Z,99119.25
2018-02-14T15:54:26.489Z,99118.88
2018-02-14T15:56:52.930Z,99124.41
2018-02-14T15:59:19.358Z,99127.16
2018-02-14T16:01:45.788Z,99127.70
2018-02-14T16:04:12.241Z,99123.30
2018-02-14T16:06:38.680Z,99132.33
2018-02-14T16:09:05.317Z,99136.90
2018-02-14T16:11:31.725Z,99136.92
2018-02-14T16:13:58.225Z,99139.97
2018-02-14T16:16:24.620Z,99152.63
2018-02-14T16:18:51.032Z,99156.45
2018-02-14T16:21:17.473Z,99162.53
2018-02-14T16:23:43.849Z,99165.52
2018-02-14T16:26:10.447Z,99174.02
2018-02-14T16:28:37.013Z,99182.71
2018-02-14T16:31:03.584Z,99179.98
2018-02-14T16:33:30.073Z,99182.11
2018-02-14T16:35:56.552Z,99183.16
2018-02-14T16:38:23.160Z,99192.06
2018-02-14T16:40:49.548Z,99197.56
2018-02-14T16:43:15.940Z,99201.52
2018-02-14T16:45:42.432Z,99198.17
2018-02-14T16:48:08.868Z,99200.98
2018-02-14T16:50:35.382Z,99207.92
2018-02-14T16:53:01.796Z,99201.40
2018-02-14T16:55:28.234Z,99215.46
2018-02-14T16:57:56.997Z,99208.05
2018-02-14T17:00:23.665Z,99225.27
2018-02-14T17:02:50.154Z,99217.38
2018-02-14T17:05:16.619Z,99215.77
2018-02-14T17:07:43.140Z,99224.25
2018-02-14T17:10:09.573Z,99222.87
2018-02-14T17:12:36.050Z,99228.15
2018-02-14T17:15:02.606Z,99225.34
2018-02-14T17:17:28.967Z,99233.06
2018-02-14T17:19:55.440Z,99240.00
2018-02-14T17:22:21.853Z,99243.73
2018-02-14T17:24:48.307Z,99244.91
2018-02-14T17:27:14.749Z,99248.17
2018-02-14T17:29:41.166Z,99242.77
2018-02-14T17:32:07.584Z,99251.08
2018-02-14T17:34:34.061Z,99255.65
2018-02-14T17:37:00.444Z,99252.47
2018-02-14T17:39:26.828Z,99252.88
2018-02-14T17:41:53.268Z,99245.75
2018-02-14T17:44:19.774Z,99255.27
2018-02-14T17:46:46.169Z,99262.12
2018-02-14T17:49:12.609Z,99263.28
2018-02-14T17:51:39.042Z,99267.42
2018-02-14T17:54:05.473Z,99276.50
2018-02-14T17:56:31.953Z,99278.68
2018-02-14T17:58:58.401Z,99279.04
2018-02-14T18:01:25.279Z,99287.11
2018-02-14T18:03:52.860Z,99286.88
2018-02-14T18:06:23.974Z,99293.05
2018-02-14T18:08:54.133Z,99296.05
2018-02-14T18:11:24.632Z,99297.52
2018-02-14T18:13:58.466Z,99302.35
2018-02-14T18:16:25.333Z,99306.51
2018-02-14T18:18:51.716Z,99302.19
2018-02-14T18:21:18.277Z,99317.76
2018-02-14T18:23:44.687Z,99311.45
2018-02-14T18:26:11.090Z,99321.38
2018-02-14T18:28:37.622Z,99319.30
2018-02-14T18:31:04.429Z,99325.24
2018-02-14T18:33:30.842Z,99331.44
2018-02-14T18:35:57.288Z,99328.74
2018-02-14T18:38:23.666Z,99334.30
2018-02-14T18:40:50.157Z,99333.27
2018-02-14T18:43:16.589Z,99329.81
2018-02-14T18:45:43.135Z,99331.77
2018-02-14T18:48:09.549Z,99342.20
2018-02-14T18:50:36.166Z,99354.13
2018-02-14T18:53:02.677Z,99348.45
2018-02-14T18:55:29.201Z,99356.52
2018-02-14T18:57:55.671Z,99355.39
2018-02-14T19:00:22.124Z,99363.84
2018-02-14T19:02:48.569Z,99369.21
2018-02-14T19:05:15.050Z,99369.02
2018-02-14T19:07:41.457Z,99360.75
2018-02-14T19:10:15.934Z,99372.77
2018-02-14T19:12:42.349Z,99366.27
2018-02-14T19:15:08.769Z,99381.56
2018-02-14T19:17:35.152Z,99379.64
2018-02-14T19:20:01.546Z,99391.55
2018-02-14T19:22:27.917Z,99391.69
2018-02-14T19:24:54.334Z,99392.91
2018-02-14T19:27:20.743Z,99398.55
2018-02-14T19:29:47.156Z,99405.45
2018-02-14T19:32:13.549Z,99406.36
2018-02-14T19:34:39.985Z,99413.73
2018-02-14T19:37:06.397Z,99409.71
2018-02-14T19:39:32.785Z,99409.28
2018-02-14T19:41:59.228Z,99405.06
2018-02-14T19:44:25.715Z,99412.19
2018-02-14T19:46:52.341Z,99417.17
2018-02-14T19:49:18.784Z,99420.95
2018-02-14T19:51:45.271Z,99414.37
2018-02-14T19:54:11.682Z,99417.16
2018-02-14T19:56:38.045Z,99422.70
2018-02-14T19:59:04.493Z,99431.28
2018-02-14T20:01:31.049Z,99438.42
2018-02-14T20:03:57.509Z,99440.76
2018-02-14T20:06:23.968Z,99441.76
2018-02-14T20:08:50.347Z,99440.69
2018-02-14T20:11:16.788Z,99431.84
2018-02-14T20:13:43.181Z,99444.16
2018-02-14T20:16:09.673Z,99441.31
2018-02-14T20:18:36.136Z,99441.55
2018-02-14T20:21:02.546Z,99448.17
2018-02-14T20:23:28.901Z,99448.38
2018-02-14T20:25:55.385Z,99449.75
2018-02-14T20:28:21.788Z,99454.82
2018-02-14T20:30:48.164Z,99450.19
2018-02-14T20:33:14.604Z,99450.61
2018-02-14T20:35:41.183Z,99466.22
2018-02-14T20:38:07.540Z,99460.09
2018-02-14T20:40:33.928Z,99466.77
2018-02-14T20:43:00.301Z,99464.46
2018-02-14T20:45:26.753Z,99472.48
2018-02-14T20:47:53.144Z,99481.39
2018-02-14T20:50:19.591Z,99486.34
2018-02-14T20:52:46.083Z,99486.73
2018-02-14T20:55:12.518Z,99490.44
2018-02-14T20:57:38.867Z,99487.27
2018-02-14T21:00:05.293Z,99490.05
2018-02-14T21:02:31.764Z,99489.91
2018-02-14T21:04:58.161Z,99498.27
2018-02-14T21:07:24.763Z,99503.67
2018-02-14T21:09:52.954Z,99501.32
2018-02-14T21:12:19.461Z,99502.64
2018-02-14T21:14:46.225Z,99503.20
2018-02-14T21:17:12.646Z,99502.00
2018-02-14T21:19:39.737Z,99509.66
2018-02-14T21:22:06.233Z,99518.23
2018-02-14T21:24:33.784Z,99518.73
2018-02-14T21:27:00.206Z,99522.80
2018-02-14T21:29:26.621Z,99526.55
2018-02-14T21:31:53.084Z,99530.84
2018-02-14T21:34:19.510Z,99532.81
2018-02-14T21:36:45.984Z,99527.16
2018-02-14T21:39:12.476Z,99523.78
2018-02-14T21:41:38.878Z,99524.82
2018-02-14T21:44:05.468Z,99529.58
2018-02-14T21:46:31.880Z,99535.34
2018-02-14T21:48:58.291Z,99536.13
2018-02-14T21:51:24.685Z,99534.48
2018-02-14T21:53:51.072Z,99539.60
2018-02-14T21:56:17.506Z,99531.05
2018-02-14T21:58:43.934Z,99534.31
2018-02-14T22:01:10.445Z,99545.80
2018-02-14T22:03:36.923Z,99542.91
2018-02-14T22:06:03.320Z,99546.81
2018-02-14T22:08:29.704Z,99553.01
2018-02-14T22:10:56.057Z,99551.27
2018-02-14T22:13:22.459Z,99563.80
2018-02-14T22:15:49.045Z,99557.59
2018-02-14T22:18:15.429Z,99560.72
2018-02-14T22:20:41.785Z,99553.36
2018-02-14T22:23:08.223Z,99544.97
2018-02-14T22:25:34.757Z,99547.91
2018-02-14T22:28:01.150Z,99546.96
2018-02-14T22:30:27.802Z,99544.34
2018-02-14T22:32:54.257Z,99542.62
2018-02-14T22:35:20.653Z,99539.80
2018-02-14T22:37:47.192Z,99545.34
2018-02-14T22:40:13.617Z,99540.38
2018-02-14T22:42:40.113Z,99545.26
2018-02-14T22:45:06.497Z,99546.53
2018-02-14T22:47:33.755Z,99545.86
2018-02-14T22:50:00.292Z,99543.38
2018-02-14T22:52:26.680Z,99543.65
2018-02-14T22:54:53.160Z,99540.27
2018-02-14T22:57:19.704Z,99536.28
2018-02-14T22:59:46.136Z,99537.77
2018-02-14T23:02:12.603Z,99539.77
2018-02-14T23:04:39.154Z,99547.95
2018-02-14T23:07:05.533Z,99548.86
2018-02-14T23:09:31.894Z,99550.94
2018-02-14T23:11:58.234Z,99550.56
2018-02-14T23:14:24.648Z,99553.36
2018-02-14T23:16:51.035Z,99554.30
2018-02-14T23:19:17.416Z,99550.64
2018-02-14T23:21:43.820Z,99551.53
2018-02-14T23:24:10.225Z,99550.37
2018-02-14T23:26:36.572Z,99555.06
2018-02-14T23:29:02.928Z,99557.75
2018-02-14T23:31:29.373Z,99564.25
2018-02-14T23:33:55.761Z,99565.76
2018-02-14T23:36:22.159Z,99568.31
2018-02-14T23:38:48.839Z,99565.96
2018-02-14T23:41:15.186Z,99576.48
2018-02-14T23:43:41.596Z,99581.41
2018-02-14T23:46:07.974Z,99585.27
2018-02-14T23:48:34.426Z,99583.14
2018-02-14T23:51:00.818Z,99585.56
2018-02-14T23:53:27.196Z,99587.69
2018-02-14T23:55:53.572Z,99587.34
2018-02-14T23:58:20.024Z,99595.81
